Time;durP1;ratioP1;P1;durP2;ratioP2;P2;SDS_P1;SDS_P2;PMS_P1;PMS_P2;Temp;Humidity;BMP_temperature;BMP_pressure;BME280_temperature;BME280_humidity;BME280_pressure;Samples;Min_cycle;Max_cycle;Signal;HPM_P1;HPM_P2
2021/01/11 00:01:24;;;;;;;44.42;28.38;;;18.60;52.40;;;;;;5078578;28;20523;-56
2021/01/11 00:03:52;;;;;;;42.75;29.17;;;18.60;52.40;;;;;;5077456;28;20060;-53
2021/01/11 00:06:18;;;;;;;45.47;28.58;;;18.60;52.40;;;;;;5081743;28;20044;-50
2021/01/11 00:08:45;;;;;;;43.55;26.80;;;18.50;52.40;;;;;;5077566;28;20527;-54
2021/01/11 00:11:12;;;;;;;44.40;27.95;;;18.50;52.40;;;;;;5080651;28;20401;-54
2021/01/11 00:13:41;;;;;;;42.47;28.52;;;18.50;52.50;;;;;;5076343;28;20049;-55
2021/01/11 00:16:11;;;;;;;44.53;26.98;;;18.50;52.50;;;;;;5081370;28;20181;-54
2021/01/11 00:18:38;;;;;;;42.75;26.70;;;18.50;52.60;;;;;;5084443;28;20052;-54
2021/01/11 00:21:06;;;;;;;39.08;25.98;;;18.60;52.80;;;;;;5075104;28;20130;-53
2021/01/11 00:23:32;;;;;;;41.50;25.55;;;18.50;52.90;;;;;;5074879;28;20052;-53
2021/01/11 00:25:59;;;;;;;37.30;25.17;;;18.50;52.70;;;;;;5082004;28;20076;-51
2021/01/11 00:28:26;;;;;;;38.88;24.15;;;18.60;52.70;;;;;;5104193;28;20055;-52
2021/01/11 00:30:55;;;;;;;42.35;25.02;;;18.50;52.60;;;;;;5096339;28;20070;-51
2021/01/11 00:33:21;;;;;;;36.90;22.45;;;18.50;52.50;;;;;;5098177;28;20035;-50
2021/01/11 00:35:48;;;;;;;38.78;24.23;;;18.50;52.50;;;;;;5101924;28;20120;-52
2021/01/11 00:38:15;;;;;;;38.50;23.50;;;18.50;52.40;;;;;;5097636;28;20051;-50
2021/01/11 00:40:41;;;;;;;38.45;23.38;;;18.50;52.40;;;;;;5102720;28;20071;-50
2021/01/11 00:43:10;;;;;;;32.92;21.70;;;18.50;52.30;;;;;;5099106;28;20464;-52
2021/01/11 00:45:37;;;;;;;36.13;21.83;;;18.50;52.20;;;;;;5099292;28;20067;-52
2021/01/11 00:48:03;;;;;;;33.70;22.02;;;18.50;52.10;;;;;;5099524;28;20056;-54
2021/01/11 00:50:30;;;;;;;36.83;22.33;;;18.50;52.10;;;;;;5103140;28;20454;-53
2021/01/11 00:52:57;;;;;;;29.52;19.30;;;18.50;52.10;;;;;;5100270;28;20122;-52
2021/01/11 00:55:26;;;;;;;32.08;19.00;;;18.50;52.00;;;;;;5102357;28;20794;-50
2021/01/11 00:58:15;;;;;;;33.90;21.25;;;18.50;52.00;;;;;;5082168;28;20047;-52
2021/01/11 01:00:49;;;;;;;36.35;21.77;;;18.40;51.90;;;;;;5087084;28;20089;-55
2021/01/11 01:03:24;;;;;;;35.47;21.35;;;18.50;51.90;;;;;;5087133;28;20048;-53
2021/01/11 01:05:50;;;;;;;33.40;19.60;;;18.40;51.90;;;;;;5087054;28;20109;-51
2021/01/11 01:08:17;;;;;;;30.77;18.65;;;18.40;51.90;;;;;;5072714;28;20123;-53
2021/01/11 01:10:44;;;;;;;27.05;17.88;;;18.40;51.90;;;;;;5076926;28;20068;-54
2021/01/11 01:13:11;;;;;;;28.70;17.90;;;18.40;51.90;;;;;;5074952;28;20084;-53
2021/01/11 01:15:38;;;;;;;24.45;17.50;;;18.40;51.80;;;;;;5078552;28;20467;-49
2021/01/11 01:18:05;;;;;;;28.73;18.23;;;18.40;52.40;;;;;;5075188;28;20079;-52
2021/01/11 01:20:31;;;;;;;26.23;18.10;;;18.40;51.80;;;;;;5074343;28;20036;-54
2021/01/11 01:22:58;;;;;;;29.90;17.48;;;18.40;51.80;;;;;;5071285;28;20052;-54
2021/01/11 01:25:24;;;;;;;27.40;18.33;;;18.40;51.70;;;;;;5077103;28;20074;-49
2021/01/11 01:27:52;;;;;;;27.63;16.55;;;18.40;51.70;;;;;;5079537;28;20048;-53
2021/01/11 01:30:19;;;;;;;24.42;15.80;;;18.40;51.60;;;;;;5081033;28;20040;-49
2021/01/11 01:32:46;;;;;;;24.77;15.82;;;18.40;51.60;;;;;;5075504;28;20071;-53
2021/01/11 01:35:12;;;;;;;24.58;15.95;;;18.40;51.60;;;;;;5085496;28;20130;-53
2021/01/11 01:37:40;;;;;;;28.33;16.70;;;18.40;51.50;;;;;;5074809;28;20048;-52
2021/01/11 01:40:07;;;;;;;21.85;15.15;;;18.40;51.50;;;;;;5073936;28;20082;-53
2021/01/11 01:42:34;;;;;;;24.40;15.15;;;18.40;51.40;;;;;;5078700;28;20074;-50
2021/01/11 01:45:02;;;;;;;23.40;15.35;;;18.40;51.50;;;;;;5077497;28;20067;-51
2021/01/11 01:47:29;;;;;;;24.33;15.40;;;18.40;51.50;;;;;;5074337;28;20519;-51
2021/01/11 01:49:56;;;;;;;22.88;15.40;;;18.40;51.40;;;;;;5071461;28;20540;-55
2021/01/11 01:52:23;;;;;;;21.77;14.25;;;18.40;51.40;;;;;;5078287;28;20496;-50
2021/01/11 01:54:50;;;;;;;23.13;14.93;;;18.30;51.30;;;;;;5080567;28;20056;-54
2021/01/11 01:57:18;;;;;;;21.88;14.70;;;18.30;51.20;;;;;;5073957;28;20041;-49
2021/01/11 01:59:48;;;;;;;22.08;14.43;;;18.40;51.30;;;;;;5083631;28;20048;-53
2021/01/11 02:02:18;;;;;;;22.90;14.38;;;18.30;51.20;;;;;;5070352;28;20077;-51
2021/01/11 02:04:46;;;;;;;23.42;13.55;;;18.40;51.20;;;;;;5075928;28;20048;-52
2021/01/11 02:07:20;;;;;;;19.15;12.88;;;18.30;51.10;;;;;;5073635;28;20047;-52
2021/01/11 02:09:57;;;;;;;19.42;12.68;;;18.30;51.10;;;;;;5073567;28;20586;-53
2021/01/11 02:12:35;;;;;;;19.02;13.63;;;18.40;51.20;;;;;;5081143;28;20044;-54
2021/01/11 02:15:08;;;;;;;21.35;13.10;;;18.30;51.10;;;;;;5074985;28;20044;-52
2021/01/11 02:17:42;;;;;;;20.27;13.50;;;18.30;51.10;;;;;;5073525;28;20144;-51
2021/01/11 02:20:42;;;;;;;23.15;14.88;;;18.30;51.10;;;;;;5074119;28;20048;-51
2021/01/11 02:23:27;;;;;;;18.58;12.43;;;18.30;51.00;;;;;;5074432;28;20419;-53
2021/01/11 02:26:06;;;;;;;17.35;12.60;;;18.30;51.10;;;;;;5069616;28;20051;-53
2021/01/11 02:28:56;;;;;;;20.67;12.90;;;18.30;51.10;;;;;;5072969;28;20424;-53
2021/01/11 02:31:25;;;;;;;17.20;13.10;;;18.30;51.10;;;;;;5077387;28;20054;-52
2021/01/11 02:33:57;;;;;;;21.38;11.05;;;18.30;51.20;;;;;;5074103;28;20050;-54
2021/01/11 02:36:24;;;;;;;15.07;11.60;;;18.30;51.20;;;;;;5077350;28;20098;-53
2021/01/11 02:38:52;;;;;;;17.25;12.40;;;18.30;51.00;;;;;;5076157;28;20064;-52
2021/01/11 02:41:18;;;;;;;21.15;12.10;;;18.30;51.10;;;;;;5073609;28;20040;-54
2021/01/11 02:43:45;;;;;;;14.85;10.95;;;18.30;51.10;;;;;;5085153;28;20074;-56
2021/01/11 02:46:12;;;;;;;21.02;12.48;;;18.30;51.10;;;;;;5077786;28;20071;-51
2021/01/11 02:48:48;;;;;;;15.45;10.90;;;18.30;51.20;;;;;;5081646;28;20075;-56
2021/01/11 02:51:22;;;;;;;17.30;9.82;;;18.30;51.20;;;;;;5077628;28;20072;-54
2021/01/11 02:54:00;;;;;;;19.25;11.65;;;18.30;51.30;;;;;;5078869;28;20055;-52
2021/01/11 02:56:33;;;;;;;13.43;9.70;;;18.30;51.30;;;;;;5076338;28;20043;-54
2021/01/11 02:59:07;;;;;;;13.57;9.98;;;18.30;51.30;;;;;;5085642;28;20055;-52
2021/01/11 03:01:43;;;;;;;16.15;11.30;;;18.30;51.30;;;;;;5087809;28;20044;-54
2021/01/11 03:04:16;;;;;;;15.77;10.53;;;18.30;51.30;;;;;;5083156;28;20507;-53
2021/01/11 03:06:53;;;;;;;19.15;10.88;;;18.30;51.20;;;;;;5084139;28;20333;-53
2021/01/11 03:09:20;;;;;;;12.50;10.18;;;18.30;51.10;;;;;;5087117;28;20044;-52
2021/01/11 03:11:46;;;;;;;13.30;9.48;;;18.30;51.10;;;;;;5083022;28;20084;-59
2021/01/11 03:14:13;;;;;;;13.05;9.45;;;18.30;51.10;;;;;;5082215;28;20113;-55
2021/01/11 03:16:39;;;;;;;14.25;10.27;;;18.30;51.10;;;;;;5083679;28;20075;-51
2021/01/11 03:19:06;;;;;;;13.43;9.27;;;18.30;51.10;;;;;;5083139;28;20060;-53
2021/01/11 03:21:34;;;;;;;16.65;8.27;;;18.30;50.90;;;;;;5080815;28;20416;-51
2021/01/11 03:24:00;;;;;;;13.60;9.32;;;18.30;50.90;;;;;;5080763;28;20102;-50
2021/01/11 03:26:27;;;;;;;12.82;9.85;;;18.30;51.00;;;;;;5083337;28;20081;-54
2021/01/11 03:28:54;;;;;;;13.98;8.50;;;18.30;50.90;;;;;;5104577;28;20614;-51
2021/01/11 03:31:21;;;;;;;13.35;8.88;;;18.30;50.90;;;;;;5103546;28;20509;-53
2021/01/11 03:33:47;;;;;;;14.05;9.40;;;18.30;50.80;;;;;;5099288;28;20059;-51
2021/01/11 03:36:14;;;;;;;11.40;8.50;;;18.30;50.80;;;;;;5097486;28;20598;-49
2021/01/11 03:38:42;;;;;;;10.40;7.68;;;18.30;50.70;;;;;;5095509;28;20051;-53
2021/01/11 03:41:09;;;;;;;9.63;7.95;;;18.30;50.70;;;;;;5076535;28;20114;-51
2021/01/11 03:43:38;;;;;;;12.82;7.78;;;18.30;50.70;;;;;;5082980;28;20110;-50
2021/01/11 03:46:05;;;;;;;12.38;8.85;;;18.30;50.70;;;;;;5077134;28;20049;-53
2021/01/11 03:48:31;;;;;;;12.35;8.13;;;18.30;50.70;;;;;;5081279;28;20043;-51
2021/01/11 03:50:59;;;;;;;13.70;8.95;;;18.30;50.60;;;;;;5078682;28;20130;-53
2021/01/11 03:53:25;;;;;;;11.57;7.35;;;18.30;50.60;;;;;;5077436;28;20044;-53
2021/01/11 03:55:53;;;;;;;9.07;7.55;;;18.30;50.60;;;;;;5073951;28;20075;-50
2021/01/11 03:58:20;;;;;;;8.98;7.18;;;18.30;50.50;;;;;;5081809;28;20416;-52
2021/01/11 04:00:48;;;;;;;14.73;8.32;;;18.30;50.50;;;;;;5083082;28;20090;-52
2021/01/11 04:03:14;;;;;;;9.00;6.65;;;18.30;50.50;;;;;;5076567;28;20064;-53
2021/01/11 04:05:43;;;;;;;9.85;7.32;;;18.30;50.60;;;;;;5076726;28;20122;-53
2021/01/11 04:08:10;;;;;;;11.38;7.63;;;18.30;50.60;;;;;;5075536;28;20044;-51
2021/01/11 04:10:37;;;;;;;11.38;7.32;;;18.30;50.50;;;;;;5082096;28;20080;-51
2021/01/11 04:13:04;;;;;;;10.20;7.75;;;18.30;50.50;;;;;;5076789;28;20052;-54
2021/01/11 04:15:31;;;;;;;12.65;8.07;;;18.30;50.40;;;;;;5076995;28;20511;-48
2021/01/11 04:17:57;;;;;;;6.97;5.80;;;18.30;50.40;;;;;;5078688;28;20049;-52
2021/01/11 04:20:24;;;;;;;10.68;7.50;;;18.30;50.40;;;;;;5078166;28;20075;-51
2021/01/11 04:22:50;;;;;;;9.88;7.53;;;18.30;50.30;;;;;;5074272;28;20052;-50
2021/01/11 04:25:18;;;;;;;10.27;6.22;;;18.30;50.30;;;;;;5081249;28;20110;-51
2021/01/11 04:27:45;;;;;;;9.02;7.20;;;18.30;50.30;;;;;;5084146;28;20036;-51
2021/01/11 04:30:13;;;;;;;6.55;5.35;;;18.30;50.30;;;;;;5076595;28;20049;-52
2021/01/11 04:32:39;;;;;;;8.35;6.75;;;18.30;50.30;;;;;;5074037;28;20060;-50
2021/01/11 04:35:08;;;;;;;9.60;6.82;;;18.30;50.20;;;;;;5075902;28;20127;-52
2021/01/11 04:37:35;;;;;;;9.30;5.97;;;18.30;50.10;;;;;;5086693;28;20064;-52
2021/01/11 04:40:02;;;;;;;7.82;6.13;;;18.30;50.20;;;;;;5076215;28;20049;-55
2021/01/11 04:42:40;;;;;;;6.45;5.68;;;18.30;50.20;;;;;;5076910;28;20044;-52
2021/01/11 04:45:08;;;;;;;9.77;6.63;;;18.30;50.10;;;;;;5078985;28;20060;-49
2021/01/11 04:47:37;;;;;;;14.30;6.18;;;18.30;50.10;;;;;;5077936;28;23584;-48
2021/01/11 04:50:04;;;;;;;7.45;4.55;;;18.30;50.10;;;;;;5071776;28;20055;-52
2021/01/11 04:52:32;;;;;;;13.40;5.60;;;18.30;50.10;;;;;;5080127;28;20474;-50
2021/01/11 04:55:02;;;;;;;9.65;5.50;;;18.30;50.10;;;;;;5082752;28;20045;-48
2021/01/11 04:57:33;;;;;;;6.55;5.88;;;18.30;50.20;;;;;;5076025;28;20078;-49
2021/01/11 05:00:04;;;;;;;8.10;5.65;;;18.30;50.10;;;;;;5077406;28;20055;-51
2021/01/11 05:02:33;;;;;;;7.45;5.22;;;18.30;50.20;;;;;;5076275;28;20036;-48
2021/01/11 05:05:00;;;;;;;8.25;6.53;;;18.30;50.80;;;;;;5077578;28;20098;-56
2021/01/11 05:07:30;;;;;;;6.45;5.38;;;18.30;50.20;;;;;;5075685;28;20127;-52
2021/01/11 05:09:57;;;;;;;7.43;5.07;;;18.30;50.20;;;;;;5080082;28;20056;-51
2021/01/11 05:12:25;;;;;;;6.65;5.15;;;18.30;50.10;;;;;;5081261;28;20044;-49
2021/01/11 05:15:15;;;;;;;7.18;4.72;;;18.30;50.10;;;;;;5076662;28;20080;-51
2021/01/11 05:17:43;;;;;;;5.35;4.85;;;18.30;50.10;;;;;;5072441;28;20067;-51
2021/01/11 05:20:13;;;;;;;5.85;4.60;;;18.30;50.10;;;;;;5075563;28;20119;-50
2021/01/11 05:22:40;;;;;;;5.50;5.00;;;18.30;50.10;;;;;;5081045;28;20049;-53
2021/01/11 05:25:13;;;;;;;6.38;5.55;;;18.30;50.10;;;;;;5075495;28;20080;-54
2021/01/11 05:27:42;;;;;;;8.25;4.30;;;18.30;50.00;;;;;;5078903;28;20053;-53
2021/01/11 05:30:15;;;;;;;5.78;4.60;;;18.30;49.90;;;;;;5079166;28;20114;-49
2021/01/11 05:32:42;;;;;;;5.72;4.50;;;18.30;49.80;;;;;;5077525;28;20052;-52
2021/01/11 05:35:11;;;;;;;5.18;4.60;;;18.30;49.80;;;;;;5071094;28;20048;-55
2021/01/11 05:37:39;;;;;;;6.43;4.45;;;18.30;49.60;;;;;;5078803;28;20106;-50
2021/01/11 05:40:11;;;;;;;5.07;4.00;;;18.30;49.70;;;;;;5082365;28;20052;-50
2021/01/11 05:42:39;;;;;;;5.63;4.88;;;18.30;49.60;;;;;;5083237;28;20052;-51
2021/01/11 05:45:10;;;;;;;5.47;4.70;;;18.30;49.60;;;;;;5086613;28;20059;-52
2021/01/11 05:47:53;;;;;;;6.43;4.18;;;18.30;49.50;;;;;;5074916;28;20044;-54
2021/01/11 05:50:21;;;;;;;6.40;4.85;;;18.40;49.50;;;;;;5079914;28;20057;-52
2021/01/11 05:52:48;;;;;;;4.88;4.35;;;18.30;49.50;;;;;;5087475;28;20075;-51
2021/01/11 05:55:22;;;;;;;5.80;4.38;;;18.30;49.50;;;;;;5075222;28;20040;-53
2021/01/11 05:57:56;;;;;;;5.85;4.63;;;18.30;49.50;;;;;;5084157;28;20055;-53
2021/01/11 06:00:24;;;;;;;4.13;3.70;;;18.30;49.50;;;;;;5081279;28;20049;-50
2021/01/11 06:02:52;;;;;;;7.10;4.25;;;18.30;49.40;;;;;;5075479;28;20048;-53
2021/01/11 06:05:19;;;;;;;6.75;4.47;;;18.30;49.40;;;;;;5074935;28;20930;-50
2021/01/11 06:07:47;;;;;;;4.43;3.97;;;18.30;49.30;;;;;;5086537;28;20055;-53
2021/01/11 06:10:15;;;;;;;5.20;3.97;;;18.30;49.30;;;;;;5076625;28;20060;-53
2021/01/11 06:12:44;;;;;;;5.50;3.65;;;18.30;49.20;;;;;;5082960;28;20048;-52
2021/01/11 06:15:12;;;;;;;5.43;4.20;;;18.40;49.30;;;;;;5078360;28;20040;-53
2021/01/11 06:17:40;;;;;;;5.20;4.40;;;18.30;49.10;;;;;;5076817;28;20131;-50
2021/01/11 06:20:09;;;;;;;7.72;5.00;;;18.30;49.10;;;;;;5071407;28;26056;-52
2021/01/11 06:23:02;;;;;;;4.93;4.50;;;18.30;49.10;;;;;;5082787;28;20041;-49
2021/01/11 06:25:39;;;;;;;4.32;3.63;;;18.30;49.20;;;;;;5081726;28;20044;-52
2021/01/11 06:28:08;;;;;;;6.88;3.50;;;18.30;49.30;;;;;;5080894;28;20740;-53
2021/01/11 06:30:44;;;;;;;4.78;4.30;;;18.30;49.30;;;;;;5084767;28;20059;-53
2021/01/11 06:33:13;;;;;;;5.65;3.95;;;18.40;49.40;;;;;;5080433;28;20044;-53
2021/01/11 06:35:42;;;;;;;5.65;3.45;;;18.30;49.30;;;;;;5082398;28;20076;-54
2021/01/11 06:38:19;;;;;;;4.50;4.10;;;18.30;49.30;;;;;;5083315;28;20040;-53
2021/01/11 06:40:51;;;;;;;5.00;3.78;;;18.30;49.30;;;;;;5086895;28;20050;-55
2021/01/11 06:43:20;;;;;;;4.68;3.17;;;18.30;49.20;;;;;;5083281;28;20044;-52
2021/01/11 06:45:48;;;;;;;6.80;3.65;;;18.30;49.20;;;;;;5075332;28;20417;-52
2021/01/11 06:48:17;;;;;;;4.82;3.42;;;18.30;49.20;;;;;;5075603;28;20097;-51
2021/01/11 06:50:48;;;;;;;3.00;2.70;;;18.30;49.20;;;;;;5073500;28;20040;-52
2021/01/11 06:53:27;;;;;;;2.70;2.47;;;18.30;49.20;;;;;;5083529;28;20565;-51
2021/01/11 06:56:05;;;;;;;3.35;3.05;;;18.40;49.20;;;;;;5074966;28;20047;-52
2021/01/11 06:58:33;;;;;;;3.78;2.75;;;18.30;49.20;;;;;;5077077;28;20070;-53
2021/01/11 07:01:06;;;;;;;5.40;3.35;;;18.30;48.90;;;;;;5076393;28;20488;-53
2021/01/11 07:03:47;;;;;;;4.68;3.17;;;18.30;48.90;;;;;;5077051;28;20044;-53
2021/01/11 07:06:36;;;;;;;3.30;2.85;;;18.30;48.90;;;;;;5081166;28;20606;-51
2021/01/11 07:09:06;;;;;;;3.38;2.70;;;18.30;48.90;;;;;;5074053;28;20044;-53
2021/01/11 07:11:34;;;;;;;3.00;2.80;;;18.30;48.90;;;;;;5080615;28;20048;-50
2021/01/11 07:14:01;;;;;;;2.85;2.58;;;18.30;48.90;;;;;;5082830;28;20085;-52
2021/01/11 07:16:45;;;;;;;2.80;2.60;;;18.30;48.90;;;;;;5084338;28;20051;-51
2021/01/11 07:19:13;;;;;;;3.25;2.35;;;18.30;48.90;;;;;;5079181;28;20646;-51
2021/01/11 07:21:41;;;;;;;4.60;3.25;;;18.30;48.90;;;;;;5080577;28;20048;-52
2021/01/11 07:24:11;;;;;;;3.13;2.92;;;18.30;49.00;;;;;;5083237;28;21179;-49
2021/01/11 07:26:38;;;;;;;12.75;2.70;;;18.30;49.00;;;;;;5083573;28;20068;-53
2021/01/11 07:29:07;;;;;;;4.43;2.88;;;18.30;49.20;;;;;;5085286;28;20052;-49
2021/01/11 07:31:36;;;;;;;6.78;4.22;;;18.30;49.10;;;;;;5084298;28;20047;-50
2021/01/11 07:34:06;;;;;;;7.38;4.10;;;18.30;49.00;;;;;;5085701;28;20040;-53
2021/01/11 07:36:39;;;;;;;10.43;3.05;;;18.30;49.00;;;;;;5087765;28;20052;-50
2021/01/11 07:39:24;;;;;;;13.23;3.70;;;18.30;49.00;;;;;;5087101;28;20111;-54
2021/01/11 07:41:54;;;;;;;11.02;3.35;;;18.40;48.90;;;;;;5084814;28;20048;-51
2021/01/11 07:44:24;;;;;;;5.35;3.28;;;18.40;48.80;;;;;;5085328;28;20055;-50
2021/01/11 07:46:59;;;;;;;7.25;2.13;;;18.40;48.70;;;;;;5089608;28;20048;-49
2021/01/11 07:49:27;;;;;;;3.58;3.20;;;18.40;48.60;;;;;;5102197;28;20033;-54
2021/01/11 07:52:02;;;;;;;4.03;3.33;;;18.40;48.50;;;;;;5084605;28;20040;-51
2021/01/11 07:54:29;;;;;;;3.28;2.97;;;18.50;48.60;;;;;;5083249;28;20523;-50
2021/01/11 07:56:56;;;;;;;3.85;3.28;;;18.50;48.50;;;;;;5083856;28;20052;-49
2021/01/11 07:59:23;;;;;;;4.20;2.55;;;18.50;48.50;;;;;;5078570;28;20040;-51
2021/01/11 08:01:51;;;;;;;6.85;4.07;;;18.50;48.40;;;;;;5081087;28;20051;-51
2021/01/11 08:04:18;;;;;;;3.22;2.92;;;18.50;48.30;;;;;;5078424;28;20047;-56
2021/01/11 08:06:53;;;;;;;3.25;2.95;;;18.50;48.40;;;;;;5083709;28;20036;-52
2021/01/11 08:09:22;;;;;;;5.10;3.55;;;18.50;48.40;;;;;;5084368;28;20542;-53
2021/01/11 08:11:49;;;;;;;2.90;2.55;;;18.50;48.30;;;;;;5075770;28;20189;-55
2021/01/11 08:14:17;;;;;;;7.07;3.72;;;18.50;48.30;;;;;;5078546;28;20040;-53
2021/01/11 08:16:49;;;;;;;3.50;3.13;;;18.50;48.20;;;;;;5085236;28;20084;-52
2021/01/11 08:19:17;;;;;;;5.95;3.30;;;18.60;48.20;;;;;;5076332;28;20162;-51
2021/01/11 08:21:44;;;;;;;4.03;3.00;;;18.60;48.10;;;;;;5078399;28;20052;-51
2021/01/11 08:24:11;;;;;;;4.45;2.63;;;18.60;48.00;;;;;;5084989;28;20044;-55
2021/01/11 08:26:48;;;;;;;4.25;3.63;;;18.60;47.90;;;;;;5080604;28;20101;-53
2021/01/11 08:29:16;;;;;;;2.88;2.67;;;18.60;47.80;;;;;;5096577;28;20500;-52
2021/01/11 08:31:44;;;;;;;3.10;2.45;;;18.60;47.70;;;;;;5079319;28;20205;-51
2021/01/11 08:34:11;;;;;;;2.78;2.58;;;18.60;48.00;;;;;;5085907;28;20040;-57
2021/01/11 08:36:39;;;;;;;3.05;2.72;;;18.60;47.60;;;;;;5084875;28;20052;-53
2021/01/11 08:39:09;;;;;;;2.70;2.22;;;18.60;47.60;;;;;;5085268;28;20508;-52
2021/01/11 08:41:37;;;;;;;4.25;3.30;;;18.60;47.70;;;;;;5079790;28;20048;-52
2021/01/11 08:44:05;;;;;;;2.40;2.10;;;18.60;47.70;;;;;;5080784;28;20397;-53
2021/01/11 08:46:52;;;;;;;2.38;2.08;;;18.60;47.60;;;;;;5080032;28;20139;-53
2021/01/11 08:49:19;;;;;;;2.42;2.25;;;18.70;47.70;;;;;;5077262;28;20066;-53
2021/01/11 08:51:46;;;;;;;2.83;2.05;;;18.60;47.70;;;;;;5080250;28;20048;-55
2021/01/11 08:54:28;;;;;;;2.25;1.73;;;18.60;47.60;;;;;;5080953;28;20570;-54
2021/01/11 08:56:56;;;;;;;3.17;1.80;;;18.60;47.90;;;;;;5086912;28;20055;-53
2021/01/11 08:59:23;;;;;;;1.80;1.70;;;18.60;47.60;;;;;;5079139;28;20044;-51
2021/01/11 09:01:52;;;;;;;3.20;1.50;;;18.70;47.50;;;;;;5086494;28;20135;-50
2021/01/11 09:04:35;;;;;;;6.47;1.48;;;18.70;47.50;;;;;;5077516;28;20053;-54
2021/01/11 09:07:04;;;;;;;1.92;1.73;;;18.70;47.50;;;;;;5079890;28;20056;-54
2021/01/11 09:09:32;;;;;;;2.25;1.08;;;18.70;47.50;;;;;;5074504;28;20044;-54
2021/01/11 09:12:04;;;;;;;2.05;1.55;;;18.70;47.70;;;;;;5073088;28;20054;-53
2021/01/11 09:14:33;;;;;;;3.10;2.17;;;18.70;47.90;;;;;;5073291;28;20055;-58
2021/01/11 09:17:05;;;;;;;4.18;1.50;;;18.70;47.90;;;;;;5075440;28;20378;-53
2021/01/11 09:19:33;;;;;;;4.90;1.70;;;18.70;47.90;;;;;;5090264;28;20056;-54
2021/01/11 09:22:03;;;;;;;2.03;1.35;;;18.70;47.80;;;;;;5077705;28;20052;-56
2021/01/11 09:24:30;;;;;;;4.53;1.30;;;18.70;47.80;;;;;;5078834;28;20496;-53
2021/01/11 09:26:57;;;;;;;1.67;1.52;;;18.70;47.80;;;;;;5078657;28;20051;-54
2021/01/11 09:29:25;;;;;;;3.50;1.55;;;18.70;47.70;;;;;;5083215;28;20052;-55
2021/01/11 09:31:52;;;;;;;2.15;1.52;;;18.70;47.70;;;;;;5084623;28;20492;-51
2021/01/11 09:34:21;;;;;;;2.20;0.93;;;18.70;47.60;;;;;;5087253;28;20036;-68
2021/01/11 09:36:48;;;;;;;10.23;1.02;;;18.70;47.50;;;;;;5073275;28;20098;-60
2021/01/11 09:39:17;;;;;;;3.17;0.93;;;18.70;47.40;;;;;;5081525;28;20044;-49
2021/01/11 09:41:46;;;;;;;1.88;1.38;;;18.70;47.30;;;;;;5072840;28;20143;-51
2021/01/11 09:44:13;;;;;;;2.00;1.27;;;18.70;47.10;;;;;;5074356;28;20056;-50
2021/01/11 09:46:45;;;;;;;9.05;1.15;;;18.70;46.90;;;;;;5074410;28;20076;-47
2021/01/11 09:49:13;;;;;;;1.17;1.17;;;18.70;46.70;;;;;;5074344;28;20068;-51
2021/01/11 09:51:41;;;;;;;2.65;1.10;;;18.70;46.70;;;;;;5079067;28;20200;-50
2021/01/11 09:54:09;;;;;;;7.28;0.90;;;18.70;46.80;;;;;;5073066;28;20048;-59
2021/01/11 09:56:37;;;;;;;2.33;0.80;;;18.70;47.20;;;;;;5076290;28;22684;-58
2021/01/11 09:59:04;;;;;;;1.33;0.70;;;18.70;47.60;;;;;;5073528;28;20051;-62
2021/01/11 10:01:38;;;;;;;2.67;0.70;;;18.70;47.80;;;;;;5075546;28;20045;-60
2021/01/11 10:04:06;;;;;;;2.90;1.45;;;18.70;48.10;;;;;;5076475;28;20082;-59
2021/01/11 10:06:42;;;;;;;1.52;0.60;;;18.70;48.20;;;;;;5073703;28;20049;-66
2021/01/11 10:09:10;;;;;;;1.52;0.95;;;18.70;48.20;;;;;;5074786;28;20044;-64
2021/01/11 10:11:38;;;;;;;1.80;0.90;;;18.70;48.40;;;;;;5083890;28;20105;-60
2021/01/11 10:14:06;;;;;;;3.03;0.85;;;18.70;48.60;;;;;;5070099;28;20695;-61
2021/01/11 10:16:33;;;;;;;0.63;0.63;;;18.70;48.50;;;;;;5078005;28;20165;-61
2021/01/11 10:19:01;;;;;;;1.15;0.70;;;18.60;48.50;;;;;;5080224;28;20051;-59
2021/01/11 10:21:28;;;;;;;0.82;0.70;;;18.60;48.60;;;;;;5079510;28;20044;-60
2021/01/11 10:23:56;;;;;;;7.70;0.80;;;18.60;48.50;;;;;;5083991;28;20048;-53
2021/01/11 10:26:23;;;;;;;7.18;0.35;;;18.60;48.20;;;;;;5074847;28;20562;-63
2021/01/11 10:28:51;;;;;;;4.78;1.27;;;18.60;48.10;;;;;;5082057;28;20385;-53
2021/01/11 10:31:18;;;;;;;4.47;0.70;;;18.60;48.00;;;;;;5081314;28;20076;-52
2021/01/11 10:33:46;;;;;;;2.17;0.55;;;18.60;47.90;;;;;;5078332;28;20119;-55
2021/01/11 10:36:13;;;;;;;1.27;0.88;;;18.60;47.80;;;;;;5085373;28;20052;-51
2021/01/11 10:38:41;;;;;;;1.55;0.73;;;18.60;47.60;;;;;;5077345;28;20052;-54
2021/01/11 10:41:09;;;;;;;3.55;0.85;;;18.60;47.40;;;;;;5081124;28;20190;-49
2021/01/11 10:43:36;;;;;;;2.25;0.90;;;18.60;47.30;;;;;;5079325;28;20056;-52
2021/01/11 10:46:03;;;;;;;3.03;0.60;;;18.60;47.30;;;;;;5082822;28;20048;-56
2021/01/11 10:48:30;;;;;;;0.88;0.52;;;18.60;47.40;;;;;;5077410;28;20420;-50
2021/01/11 10:50:56;;;;;;;1.15;0.30;;;18.60;47.40;;;;;;5074752;28;20045;-57
2021/01/11 10:53:23;;;;;;;4.57;1.42;;;18.60;47.30;;;;;;5084795;28;20063;-53
2021/01/11 10:55:50;;;;;;;0.95;0.60;;;18.60;47.30;;;;;;5076357;28;20049;-50
2021/01/11 10:58:17;;;;;;;2.60;0.30;;;18.60;47.20;;;;;;5095731;28;20054;-57
2021/01/11 11:00:44;;;;;;;1.38;0.63;;;18.60;47.20;;;;;;5094377;28;20048;-57
2021/01/11 11:03:11;;;;;;;1.15;0.73;;;18.60;47.20;;;;;;5097967;28;20044;-51
2021/01/11 11:05:37;;;;;;;1.85;0.65;;;18.60;47.20;;;;;;5100373;28;20052;-53
2021/01/11 11:08:05;;;;;;;0.80;0.65;;;18.60;47.10;;;;;;5099464;28;20115;-56
2021/01/11 11:10:32;;;;;;;1.63;1.20;;;18.60;47.20;;;;;;5100080;28;21656;-60
2021/01/11 11:12:58;;;;;;;0.65;0.65;;;18.60;47.20;;;;;;5085195;28;20069;-61
2021/01/11 11:15:26;;;;;;;1.75;0.73;;;18.60;47.60;;;;;;5088888;28;20044;-60
2021/01/11 11:17:53;;;;;;;1.65;0.60;;;18.60;46.90;;;;;;5091813;28;20039;-60
2021/01/11 11:20:19;;;;;;;1.02;0.45;;;18.60;46.80;;;;;;5093782;28;20508;-60
2021/01/11 11:22:46;;;;;;;1.20;1.10;;;18.60;46.70;;;;;;5099658;28;20044;-60
2021/01/11 11:25:14;;;;;;;0.50;0.50;;;18.60;46.70;;;;;;5097037;28;20051;-61
2021/01/11 11:27:41;;;;;;;4.68;0.75;;;18.60;46.70;;;;;;5086526;28;20131;-61
2021/01/11 11:30:09;;;;;;;0.95;0.70;;;18.60;46.60;;;;;;5088492;28;20131;-60
2021/01/11 11:32:36;;;;;;;0.40;0.32;;;18.60;46.70;;;;;;5080286;28;20124;-55
2021/01/11 11:35:05;;;;;;;0.70;0.60;;;18.60;47.30;;;;;;5083747;28;20052;-64
2021/01/11 11:37:33;;;;;;;0.40;0.40;;;18.60;47.50;;;;;;5086964;28;20123;-57
2021/01/11 11:40:00;;;;;;;1.60;0.60;;;18.60;47.80;;;;;;5084005;28;20051;-60
2021/01/11 11:42:33;;;;;;;2.92;0.55;;;18.60;47.80;;;;;;5077388;28;20632;-60
2021/01/11 11:44:59;;;;;;;4.75;0.43;;;18.60;48.20;;;;;;5077433;28;20452;-60
2021/01/11 11:47:31;;;;;;;2.67;0.30;;;18.60;48.20;;;;;;5085239;28;20044;-59
2021/01/11 11:49:58;;;;;;;12.50;1.45;;;18.70;48.70;;;;;;5085147;28;20039;-60
2021/01/11 11:52:28;;;;;;;3.40;1.05;;;18.70;49.10;;;;;;5082345;28;20044;-59
2021/01/11 11:54:54;;;;;;;1.40;0.43;;;18.70;49.50;;;;;;5078645;28;20493;-60
2021/01/11 11:57:22;;;;;;;3.75;0.30;;;18.70;49.90;;;;;;5085089;28;20043;-59
2021/01/11 11:59:49;;;;;;;3.88;0.70;;;18.70;50.30;;;;;;5084060;28;20424;-59
2021/01/11 12:02:16;;;;;;;1.80;0.70;;;18.70;50.70;;;;;;5078376;28;20047;-59
2021/01/11 12:04:42;;;;;;;1.45;0.50;;;18.70;50.80;;;;;;5085953;28;20450;-62
2021/01/11 12:07:13;;;;;;;6.88;0.50;;;18.70;50.90;;;;;;5082093;28;20043;-60
2021/01/11 12:09:40;;;;;;;2.42;0.82;;;18.70;51.20;;;;;;5082830;28;20582;-60
2021/01/11 12:12:07;;;;;;;2.80;0.57;;;18.70;51.00;;;;;;5082461;28;20042;-60
2021/01/11 12:14:34;;;;;;;1.70;0.40;;;18.70;50.90;;;;;;5080158;28;20412;-61
2021/01/11 12:17:01;;;;;;;4.40;0.40;;;18.70;51.00;;;;;;5079317;28;20116;-59
2021/01/11 12:19:30;;;;;;;1.50;0.63;;;18.80;51.30;;;;;;5080959;28;20131;-61
2021/01/11 12:21:57;;;;;;;0.95;0.95;;;18.80;51.10;;;;;;5080300;28;20041;-59
2021/01/11 12:24:24;;;;;;;11.73;0.80;;;18.80;51.80;;;;;;5080909;28;20113;-59
2021/01/11 12:26:53;;;;;;;1.48;0.50;;;18.80;51.10;;;;;;5085194;28;20089;-54
2021/01/11 12:29:19;;;;;;;0.70;0.38;;;18.80;51.10;;;;;;5081536;28;20499;-62
2021/01/11 12:31:50;;;;;;;0.55;0.47;;;18.80;51.10;;;;;;5085085;28;20048;-52
2021/01/11 12:34:17;;;;;;;3.55;1.42;;;18.80;51.00;;;;;;5084535;28;20040;-55
2021/01/11 12:36:43;;;;;;;2.70;1.05;;;18.80;51.10;;;;;;5079652;28;20653;-52
2021/01/11 12:39:11;;;;;;;1.10;0.38;;;18.90;51.10;;;;;;5069040;28;20051;-59
2021/01/11 12:41:40;;;;;;;1.08;0.60;;;18.90;51.20;;;;;;5080355;28;20044;-71
2021/01/11 12:44:07;;;;;;;2.92;0.90;;;18.90;51.10;;;;;;5078090;28;20060;-56
2021/01/11 12:46:34;;;;;;;0.60;0.57;;;18.90;51.20;;;;;;5081721;28;20043;-59
2021/01/11 12:49:01;;;;;;;1.50;0.70;;;18.90;50.90;;;;;;5078241;28;20730;-56
2021/01/11 12:51:28;;;;;;;4.68;0.88;;;18.90;50.90;;;;;;5079745;28;20055;-56